createdAt,value
2023-03-17T00:01:14.194Z,103.00
2023-03-17T00:03:43.201Z,97.50
2023-03-17T00:06:16.953Z,101.50
2023-03-17T00:08:45.976Z,84.25
2023-03-17T00:11:14.966Z,88.25
2023-03-17T00:13:42.814Z,81.50
2023-03-17T00:16:22.410Z,114.00
2023-03-17T00:18:50.760Z,107.50
2023-03-17T00:21:27.272Z,107.25
2023-03-17T00:23:55.603Z,107.50
2023-03-17T00:26:22.689Z,98.75
2023-03-17T00:28:51.205Z,125.50
2023-03-17T00:31:24.582Z,112.50
2023-03-17T00:33:54.205Z,108.50
2023-03-17T00:36:32.687Z,116.75
2023-03-17T00:39:00.045Z,123.75
2023-03-17T00:41:27.441Z,155.75
2023-03-17T00:43:54.383Z,129.75
2023-03-17T00:46:27.769Z,107.50
2023-03-17T00:48:55.356Z,91.75
2023-03-17T00:51:23.555Z,92.50
2023-03-17T00:53:50.686Z,117.00
2023-03-17T00:56:19.996Z,106.75
2023-03-17T00:58:47.941Z,94.75
2023-03-17T01:01:15.114Z,91.75
2023-03-17T01:03:41.976Z,77.75
2023-03-17T01:06:12.337Z,88.50
2023-03-17T01:09:09.635Z,99.50
2023-03-17T01:11:52.325Z,87.00
2023-03-17T01:14:50.839Z,90.50
2023-03-17T01:17:32.361Z,71.75
2023-03-17T01:20:30.733Z,102.00
2023-03-17T01:23:16.832Z,108.00
2023-03-17T01:25:45.059Z,112.00
2023-03-17T01:28:17.021Z,95.00
2023-03-17T01:30:43.914Z,90.00
2023-03-17T01:33:13.216Z,89.25
2023-03-17T01:35:41.597Z,73.00
2023-03-17T01:38:08.818Z,57.25
2023-03-17T01:40:39.322Z,48.00
2023-03-17T01:43:09.079Z,78.25
2023-03-17T01:46:13.413Z,73.00
2023-03-17T01:48:47.290Z,39.75
2023-03-17T01:51:19.348Z,71.00
2023-03-17T01:53:50.062Z,78.00
2023-03-17T01:56:18.276Z,67.00
2023-03-17T01:58:49.592Z,65.00
2023-03-17T02:01:16.710Z,53.00
2023-03-17T02:03:45.767Z,37.00
2023-03-17T02:06:13.249Z,30.67
2023-03-17T02:08:40.436Z,26.00
2023-03-17T02:11:14.320Z,34.75
2023-03-17T02:16:54.406Z,23.00
2023-03-17T02:19:38.577Z,61.00
2023-03-17T02:22:25.958Z,61.25
2023-03-17T02:25:14.014Z,44.50
2023-03-17T02:28:08.723Z,47.75
2023-03-17T02:30:36.640Z,93.50
2023-03-17T02:33:03.766Z,70.75
2023-03-17T02:35:31.653Z,64.00
2023-03-17T02:37:58.631Z,62.50
2023-03-17T02:40:25.455Z,105.50
2023-03-17T02:42:52.317Z,98.00
2023-03-17T02:45:19.153Z,99.50
2023-03-17T02:47:47.271Z,101.25
2023-03-17T02:50:23.754Z,74.00
2023-03-17T02:52:51.496Z,77.00
2023-03-17T02:55:18.427Z,83.00
2023-03-17T02:57:45.212Z,94.00
2023-03-17T03:00:13.599Z,84.75
2023-03-17T03:02:41.651Z,95.50
2023-03-17T03:05:09.795Z,100.25
2023-03-17T03:07:36.819Z,96.75
2023-03-17T03:10:04.340Z,100.00
2023-03-17T03:12:31.223Z,87.75
2023-03-17T03:14:58.999Z,95.00
2023-03-17T03:17:25.789Z,94.50
2023-03-17T03:19:52.737Z,86.00
2023-03-17T03:22:19.565Z,86.50
2023-03-17T03:24:46.413Z,92.50
2023-03-17T03:27:13.196Z,91.75
2023-03-17T03:29:40.037Z,81.25
2023-03-17T03:32:07.513Z,72.00
2023-03-17T03:34:34.397Z,81.75
2023-03-17T03:37:01.350Z,73.50
2023-03-17T03:39:28.201Z,70.25
2023-03-17T03:41:58.615Z,70.00
2023-03-17T03:44:25.897Z,62.75
2023-03-17T03:46:53.056Z,39.75
2023-03-17T03:49:19.989Z,39.00
2023-03-17T03:51:46.858Z,47.50
2023-03-17T03:54:13.992Z,69.75
2023-03-17T03:56:40.806Z,83.25
2023-03-17T03:59:07.792Z,76.75
2023-03-17T04:01:34.566Z,80.75
2023-03-17T04:04:02.007Z,61.75
2023-03-17T04:06:28.891Z,49.25
2023-03-17T04:08:57.866Z,50.75
2023-03-17T04:11:25.237Z,25.00
2023-03-17T04:13:52.220Z,18.33
2023-03-17T04:16:19.124Z,26.00
2023-03-17T04:18:46.178Z,18.67
2023-03-17T04:21:13.919Z,22.67
2023-03-17T04:23:40.857Z,18.00
2023-03-17T04:26:07.802Z,61.25
2023-03-17T04:28:34.921Z,49.50
2023-03-17T04:31:02.091Z,80.25
2023-03-17T04:33:29.285Z,57.25
2023-03-17T04:35:56.994Z,8.75
2023-03-17T04:38:23.949Z,51.25
2023-03-17T04:40:52.051Z,48.75
2023-03-17T04:43:19.035Z,39.75
2023-03-17T04:45:46.031Z,57.75
2023-03-17T04:48:13.058Z,40.75
2023-03-17T04:50:40.033Z,38.00
2023-03-17T04:53:07.131Z,43.00
2023-03-17T04:55:34.024Z,49.25
2023-03-17T04:58:01.344Z,43.25
2023-03-17T05:00:28.449Z,56.00
2023-03-17T05:02:55.763Z,40.25
2023-03-17T05:05:22.958Z,40.75
2023-03-17T05:07:49.915Z,30.00
2023-03-17T05:10:17.039Z,28.33
2023-03-17T05:12:45.489Z,21.67
2023-03-17T05:15:12.431Z,15.67
2023-03-17T05:17:39.320Z,19.67
2023-03-17T05:20:06.911Z,28.50
2023-03-17T05:22:33.858Z,41.25
2023-03-17T05:25:00.914Z,33.50
2023-03-17T05:27:27.899Z,25.50
2023-03-17T05:29:54.816Z,23.67
2023-03-17T05:32:21.774Z,26.33
2023-03-17T05:34:49.092Z,19.33
2023-03-17T05:37:16.911Z,20.00
2023-03-17T05:39:44.138Z,17.67
2023-03-17T05:42:11.635Z,54.00
2023-03-17T05:44:38.700Z,52.75
2023-03-17T05:47:06.083Z,66.50
2023-03-17T05:49:32.971Z,58.25
2023-03-17T05:51:59.858Z,33.50
2023-03-17T05:54:26.818Z,46.00
2023-03-17T05:56:55.373Z,37.67
2023-03-17T05:59:22.790Z,36.67
2023-03-17T06:01:49.780Z,38.67
2023-03-17T06:04:16.843Z,36.33
2023-03-17T06:06:43.941Z,40.75
2023-03-17T06:09:11.040Z,59.75
2023-03-17T06:11:38.477Z,41.25
2023-03-17T06:14:05.404Z,71.00
2023-03-17T06:16:33.499Z,74.25
2023-03-17T06:19:00.578Z,69.75
2023-03-17T06:21:27.689Z,64.50
2023-03-17T06:23:54.757Z,52.00
2023-03-17T06:26:22.174Z,40.00
2023-03-17T06:28:49.057Z,40.33
2023-03-17T06:31:16.238Z,24.67
2023-03-17T06:33:44.012Z,34.67
2023-03-17T06:37:03.856Z,23.67
2023-03-17T06:39:31.321Z,39.67
2023-03-17T06:41:58.309Z,22.00
2023-03-17T06:44:25.307Z,17.00
2023-03-17T06:46:52.999Z,23.67
2023-03-17T06:49:19.970Z,19.67
2023-03-17T06:51:47.182Z,19.33
2023-03-17T06:54:14.368Z,20.33
2023-03-17T06:56:42.062Z,18.33
2023-03-17T06:59:09.102Z,13.00
2023-03-17T07:01:36.016Z,9.33
2023-03-17T07:04:02.994Z,13.00
2023-03-17T07:06:30.133Z,17.50
2023-03-17T07:08:58.252Z,14.00
2023-03-17T07:11:37.667Z,9.50
2023-03-17T07:14:07.285Z,24.00
2023-03-17T07:16:34.373Z,27.00
2023-03-17T07:19:15.159Z,17.25
2023-03-17T07:21:42.298Z,17.00
2023-03-17T07:24:10.228Z,13.00
2023-03-17T07:26:37.478Z,14.00
2023-03-17T07:29:05.953Z,10.50
2023-03-17T07:31:33.310Z,10.75
2023-03-17T07:34:00.267Z,10.50
2023-03-17T07:36:27.677Z,28.75
2023-03-17T07:38:55.708Z,27.50
2023-03-17T07:41:22.902Z,25.00
2023-03-17T07:43:49.821Z,17.00
2023-03-17T07:46:16.924Z,13.00
2023-03-17T07:48:44.287Z,16.00
2023-03-17T07:51:17.107Z,14.50
2023-03-17T07:53:45.374Z,12.75
2023-03-17T07:56:13.403Z,6.75
2023-03-17T07:58:40.611Z,16.50
2023-03-17T08:01:08.802Z,12.25
2023-03-17T08:03:38.691Z,9.00
2023-03-17T08:06:08.849Z,5.50
2023-03-17T08:08:36.244Z,10.00
2023-03-17T08:11:05.364Z,10.50
2023-03-17T08:13:32.993Z,10.25
2023-03-17T08:16:00.876Z,8.25
2023-03-17T08:18:27.899Z,7.50
2023-03-17T08:20:55.013Z,12.00
2023-03-17T08:23:22.729Z,11.00
2023-03-17T08:25:49.746Z,12.50
2023-03-17T08:28:16.742Z,9.00
2023-03-17T08:30:45.036Z,10.75
2023-03-17T08:33:12.319Z,10.00
2023-03-17T08:35:42.049Z,6.50
2023-03-17T08:38:09.910Z,9.00
2023-03-17T08:40:38.604Z,17.00
2023-03-17T08:43:05.696Z,6.00
2023-03-17T08:45:32.832Z,7.25
2023-03-17T08:48:00.348Z,7.00
2023-03-17T08:50:27.698Z,7.75
2023-03-17T08:52:55.319Z,8.00
2023-03-17T08:55:22.271Z,11.50
2023-03-17T08:57:49.786Z,9.00
2023-03-17T09:00:20.625Z,14.50
2023-03-17T09:02:49.099Z,11.75
2023-03-17T09:05:17.547Z,11.50
2023-03-17T09:07:45.026Z,11.00
2023-03-17T09:10:13.921Z,8.25
2023-03-17T09:12:40.850Z,9.00
2023-03-17T09:15:08.313Z,6.75
2023-03-17T09:17:35.250Z,6.75
2023-03-17T09:20:02.217Z,9.00
2023-03-17T09:22:29.085Z,9.25
2023-03-17T09:24:56.226Z,8.00
2023-03-17T09:27:23.215Z,2.00
2023-03-17T09:29:50.115Z,8.00
2023-03-17T09:32:17.123Z,7.00
2023-03-17T09:34:44.082Z,9.50
2023-03-17T09:37:11.101Z,8.00
2023-03-17T09:39:38.093Z,7.50
2023-03-17T09:42:20.387Z,3.50
2023-03-17T09:44:47.928Z,5.00
2023-03-17T09:47:42.289Z,9.00
2023-03-17T09:50:19.294Z,6.25
2023-03-17T09:52:51.092Z,5.75
2023-03-17T09:55:31.783Z,5.25
2023-03-17T09:58:01.106Z,5.00
2023-03-17T10:00:31.402Z,7.25
2023-03-17T10:02:59.208Z,5.25
2023-03-17T10:05:37.220Z,3.50
2023-03-17T10:08:30.736Z,4.00
2023-03-17T10:11:15.052Z,4.25
2023-03-17T10:14:02.383Z,2.75
2023-03-17T10:16:47.087Z,2.00
2023-03-17T10:19:31.807Z,5.50
2023-03-17T10:22:05.675Z,5.25
2023-03-17T10:24:34.380Z,1.75
2023-03-17T10:27:06.632Z,2.75
2023-03-17T10:29:33.688Z,4.00
2023-03-17T10:32:01.167Z,4.75
2023-03-17T10:34:31.267Z,3.25
2023-03-17T10:37:09.653Z,2.25
2023-03-17T10:39:52.623Z,2.25
2023-03-17T10:42:26.456Z,2.25
2023-03-17T10:45:02.188Z,3.00
2023-03-17T10:47:38.628Z,2.00
2023-03-17T10:50:25.164Z,4.75
2023-03-17T10:53:00.881Z,8.00
2023-03-17T10:55:44.961Z,6.00
2023-03-17T10:58:18.958Z,5.00
2023-03-17T11:01:03.819Z,5.00
2023-03-17T11:03:39.917Z,8.25
2023-03-17T11:06:19.356Z,6.00
2023-03-17T11:08:55.452Z,4.00
2023-03-17T11:11:34.960Z,1.00
2023-03-17T11:14:10.807Z,3.50
2023-03-17T11:16:40.983Z,5.50
2023-03-17T11:19:15.950Z,4.00
2023-03-17T11:22:05.278Z,4.50
2023-03-17T11:24:36.596Z,5.25
2023-03-17T11:27:19.498Z,9.25
2023-03-17T11:30:11.565Z,8.00
2023-03-17T11:32:44.130Z,5.75
2023-03-17T11:35:24.242Z,5.00
2023-03-17T11:38:09.919Z,6.00
2023-03-17T11:40:55.743Z,5.00
2023-03-17T11:43:51.477Z,3.00
2023-03-17T11:46:30.426Z,3.25
2023-03-17T11:49:10.189Z,3.00
2023-03-17T11:51:50.923Z,4.25
2023-03-17T11:54:46.053Z,5.50
2023-03-17T11:57:27.393Z,7.00
2023-03-17T12:00:01.189Z,3.00
2023-03-17T12:02:50.245Z,4.25
2023-03-17T12:05:23.329Z,4.00
2023-03-17T12:08:01.137Z,3.50
2023-03-17T12:10:36.595Z,2.50
2023-03-17T12:13:15.209Z,4.50
2023-03-17T12:16:01.298Z,6.25
2023-03-17T12:18:32.972Z,9.00
2023-03-17T12:21:12.187Z,9.75
2023-03-17T12:23:48.646Z,6.00
2023-03-17T12:26:21.885Z,7.00
2023-03-17T12:28:58.388Z,9.00
2023-03-17T12:31:44.725Z,3.75
2023-03-17T12:34:24.386Z,3.25
2023-03-17T12:36:52.493Z,4.75
2023-03-17T12:39:27.505Z,3.00
2023-03-17T12:42:11.878Z,5.75
2023-03-17T12:45:00.107Z,4.75
2023-03-17T12:47:45.603Z,12.75
2023-03-17T12:50:46.765Z,21.25
2023-03-17T12:53:16.487Z,13.00
2023-03-17T12:55:47.572Z,9.50
2023-03-17T12:58:39.837Z,24.75
2023-03-17T13:01:23.359Z,15.00
2023-03-17T13:04:05.309Z,11.25
2023-03-17T13:06:41.234Z,6.25
2023-03-17T13:09:50.963Z,7.00
2023-03-17T13:12:42.920Z,5.75
2023-03-17T13:15:33.642Z,5.00
2023-03-17T13:18:12.685Z,31.00
2023-03-17T13:21:00.633Z,13.25
2023-03-17T13:23:41.981Z,10.00
2023-03-17T13:26:12.678Z,6.00
2023-03-17T13:28:40.966Z,5.50
2023-03-17T13:31:31.979Z,4.00
2023-03-17T13:34:19.926Z,3.00
2023-03-17T13:36:56.266Z,2.00
2023-03-17T13:39:50.689Z,4.00
2023-03-17T13:42:50.938Z,5.75
2023-03-17T13:45:34.193Z,6.00
2023-03-17T13:48:35.155Z,3.25
2023-03-17T13:51:33.991Z,2.50
2023-03-17T13:54:20.193Z,2.50
2023-03-17T13:56:49.792Z,2.00
2023-03-17T13:59:41.179Z,2.25
2023-03-17T14:02:24.100Z,2.00
2023-03-17T14:04:53.738Z,6.50
2023-03-17T14:07:24.874Z,5.00
2023-03-17T14:09:57.668Z,5.25
2023-03-17T14:12:42.880Z,4.00
2023-03-17T14:15:35.306Z,2.50
2023-03-17T14:18:15.650Z,2.00
2023-03-17T14:20:57.122Z,2.00
2023-03-17T14:23:25.274Z,4.00
2023-03-17T14:25:55.034Z,3.50
2023-03-17T14:28:27.319Z,3.00
2023-03-17T14:31:02.399Z,7.00
2023-03-17T14:33:32.684Z,3.75
2023-03-17T14:36:02.384Z,4.75
2023-03-17T14:38:32.903Z,3.00
2023-03-17T14:41:21.401Z,2.00
2023-03-17T14:43:50.223Z,2.50
2023-03-17T14:46:23.219Z,2.00
2023-03-17T14:48:57.747Z,2.25
2023-03-17T14:51:27.502Z,2.75
2023-03-17T14:54:01.378Z,2.00
2023-03-17T14:56:41.734Z,2.00
2023-03-17T14:59:20.704Z,1.25
2023-03-17T15:01:48.866Z,3.00
2023-03-17T15:04:23.936Z,1.00
2023-03-17T15:06:54.096Z,1.25
2023-03-17T15:09:36.762Z,2.00
2023-03-17T15:12:12.801Z,2.00
2023-03-17T15:14:41.306Z,3.00
2023-03-17T15:17:32.633Z,6.50
2023-03-17T15:20:06.645Z,4.00
2023-03-17T15:22:36.366Z,3.75
2023-03-17T15:25:28.943Z,4.25
2023-03-17T15:27:56.343Z,5.00
2023-03-17T15:30:23.745Z,5.25
2023-03-17T15:33:01.575Z,21.25
2023-03-17T15:35:29.292Z,14.00
2023-03-17T15:37:56.745Z,19.25
2023-03-17T15:40:24.468Z,12.25
2023-03-17T15:42:51.394Z,33.75
2023-03-17T15:45:18.566Z,19.25
2023-03-17T15:47:47.580Z,15.00
2023-03-17T15:50:30.318Z,9.00
2023-03-17T15:53:00.944Z,17.50
2023-03-17T15:55:30.443Z,17.25
2023-03-17T15:57:58.672Z,8.00
2023-03-17T16:00:30.098Z,18.25
2023-03-17T16:03:02.875Z,21.00
2023-03-17T16:05:33.152Z,18.00
2023-03-17T16:08:00.162Z,24.25
2023-03-17T16:10:32.241Z,13.00
2023-03-17T16:12:59.645Z,12.00
2023-03-17T16:15:31.497Z,14.50
2023-03-17T16:18:01.515Z,10.50
2023-03-17T16:20:34.453Z,12.00
2023-03-17T16:23:08.054Z,19.25
2023-03-17T16:25:35.367Z,18.25
2023-03-17T16:28:12.505Z,18.00
2023-03-17T16:30:40.509Z,15.25
2023-03-17T16:33:22.677Z,18.00
2023-03-17T16:35:52.661Z,14.00
2023-03-17T16:38:24.918Z,14.00
2023-03-17T16:40:54.919Z,16.75
2023-03-17T16:43:28.586Z,22.00
2023-03-17T16:45:58.724Z,18.75
2023-03-17T16:48:26.300Z,18.75
2023-03-17T16:50:53.306Z,15.25
2023-03-17T16:53:20.659Z,14.75
2023-03-17T16:55:48.012Z,21.25
2023-03-17T16:58:37.132Z,19.25
2023-03-17T17:01:12.860Z,15.25
2023-03-17T17:03:41.019Z,15.75
2023-03-17T17:06:08.978Z,34.25
2023-03-17T17:08:36.051Z,20.50
2023-03-17T17:11:03.453Z,16.00
2023-03-17T17:13:30.629Z,13.75
2023-03-17T17:15:57.706Z,9.50
2023-03-17T17:18:27.451Z,7.50
2023-03-17T17:20:55.208Z,10.50
2023-03-17T17:23:26.944Z,15.75
2023-03-17T17:25:55.232Z,13.50
2023-03-17T17:28:24.146Z,19.50
2023-03-17T17:30:52.434Z,24.50
2023-03-17T17:33:21.478Z,34.00
2023-03-17T17:35:49.681Z,35.25
2023-03-17T17:38:28.719Z,30.00
2023-03-17T17:40:57.641Z,18.50
2023-03-17T17:43:25.379Z,14.00
2023-03-17T17:45:53.349Z,13.50
2023-03-17T17:48:23.706Z,8.75
2023-03-17T17:50:52.332Z,10.50
2023-03-17T17:53:19.847Z,4.00
2023-03-17T17:55:48.440Z,10.50
2023-03-17T17:58:18.302Z,7.75
2023-03-17T18:00:45.646Z,7.00
2023-03-17T18:03:12.806Z,10.00
2023-03-17T18:05:40.328Z,13.00
2023-03-17T18:08:10.426Z,13.00
2023-03-17T18:10:37.637Z,15.25
2023-03-17T18:13:05.444Z,14.75
2023-03-17T18:15:32.689Z,7.75
2023-03-17T18:17:59.752Z,8.50
2023-03-17T18:20:27.230Z,10.75
2023-03-17T18:22:54.527Z,11.25
2023-03-17T18:25:21.559Z,6.50
2023-03-17T18:27:48.767Z,10.00
2023-03-17T18:30:28.095Z,19.75
2023-03-17T18:33:01.511Z,20.25
2023-03-17T18:35:29.946Z,27.50
2023-03-17T18:37:59.226Z,35.00
2023-03-17T18:40:27.731Z,39.50
2023-03-17T18:42:55.537Z,33.00
2023-03-17T18:45:22.816Z,31.00
2023-03-17T18:47:50.778Z,24.50
2023-03-17T18:50:20.252Z,18.50
2023-03-17T18:52:48.037Z,18.50
2023-03-17T18:55:16.039Z,16.00
2023-03-17T18:57:44.729Z,20.25
2023-03-17T19:00:17.132Z,18.00
2023-03-17T19:02:45.898Z,5.25
2023-03-17T19:05:15.000Z,31.75
2023-03-17T19:07:42.492Z,23.00
2023-03-17T19:10:11.474Z,30.25
2023-03-17T19:12:38.907Z,36.33
2023-03-17T19:15:08.451Z,26.75
2023-03-17T19:17:36.562Z,32.50
2023-03-17T19:20:06.678Z,31.25
2023-03-17T19:22:35.256Z,47.00
2023-03-17T19:25:05.107Z,60.33
2023-03-17T19:27:32.537Z,49.67
2023-03-17T19:29:59.509Z,35.25
2023-03-17T19:32:27.092Z,53.67
2023-03-17T19:34:54.722Z,33.00
2023-03-17T19:37:21.910Z,37.75
2023-03-17T19:39:49.140Z,62.67
2023-03-17T19:42:16.467Z,50.00
2023-03-17T19:44:43.754Z,44.33
2023-03-17T19:47:10.717Z,36.75
2023-03-17T19:49:38.998Z,26.75
2023-03-17T19:52:06.751Z,25.25
2023-03-17T19:54:34.458Z,22.75
2023-03-17T19:57:01.403Z,21.75
2023-03-17T19:59:29.028Z,16.50
2023-03-17T20:01:56.798Z,11.75
2023-03-17T20:04:24.039Z,7.00
2023-03-17T20:06:55.688Z,6.00
2023-03-17T20:09:25.002Z,12.25
2023-03-17T20:11:54.059Z,5.00
2023-03-17T20:14:21.339Z,5.00
2023-03-17T20:16:49.176Z,7.00
2023-03-17T20:19:16.757Z,3.50
2023-03-17T20:21:44.069Z,6.00
2023-03-17T20:24:13.107Z,9.75
2023-03-17T20:26:41.193Z,8.25
2023-03-17T20:29:08.854Z,26.25
2023-03-17T20:31:37.415Z,28.25
2023-03-17T20:34:35.621Z,35.67
2023-03-17T20:37:03.065Z,17.00
2023-03-17T20:39:31.120Z,30.25
2023-03-17T20:41:58.117Z,5.00
2023-03-17T20:44:25.546Z,14.50
2023-03-17T20:46:55.386Z,17.75
2023-03-17T20:49:23.756Z,26.25
2023-03-17T20:51:52.859Z,17.25
2023-03-17T20:54:20.422Z,22.75
2023-03-17T20:56:49.171Z,30.50
2023-03-17T20:59:16.563Z,30.75
2023-03-17T21:01:43.727Z,32.67
2023-03-17T21:04:12.566Z,39.67
2023-03-17T21:06:39.911Z,38.75
2023-03-17T21:09:06.849Z,32.67
2023-03-17T21:11:34.408Z,23.00
2023-03-17T21:14:03.621Z,26.00
2023-03-17T21:16:30.958Z,33.67
2023-03-17T21:18:57.960Z,38.67
2023-03-17T21:21:25.617Z,31.75
2023-03-17T21:23:52.892Z,24.75
2023-03-17T21:26:20.197Z,36.33
2023-03-17T21:28:49.147Z,32.50
2023-03-17T21:31:17.471Z,29.00
2023-03-17T21:33:45.102Z,24.00
2023-03-17T21:36:12.122Z,21.50
2023-03-17T21:38:39.308Z,18.00
2023-03-17T21:41:21.544Z,17.00
2023-03-17T21:43:48.665Z,16.25
2023-03-17T21:46:16.753Z,23.00
2023-03-17T21:48:44.302Z,24.25
2023-03-17T21:51:11.678Z,11.00
2023-03-17T21:53:38.811Z,14.75
2023-03-17T21:56:06.565Z,14.25
2023-03-17T21:58:33.577Z,9.50
2023-03-17T22:01:01.674Z,10.75
2023-03-17T22:03:30.219Z,25.67
2023-03-17T22:05:57.170Z,33.00
2023-03-17T22:08:24.483Z,29.67
2023-03-17T22:10:51.873Z,42.67
2023-03-17T22:13:18.903Z,23.67
2023-03-17T22:15:45.844Z,30.00
2023-03-17T22:18:12.812Z,27.67
2023-03-17T22:20:39.918Z,27.67
2023-03-17T22:23:07.128Z,26.67
2023-03-17T22:25:34.118Z,29.67
2023-03-17T22:28:01.055Z,48.33
2023-03-17T22:30:28.439Z,37.33
2023-03-17T22:32:55.987Z,37.00
2023-03-17T22:35:25.195Z,40.00
2023-03-17T22:37:52.203Z,43.00
2023-03-17T22:40:19.401Z,46.33
2023-03-17T22:42:47.059Z,44.00
2023-03-17T22:45:14.056Z,47.33
2023-03-17T22:47:41.267Z,35.67
2023-03-17T22:50:09.020Z,43.00
2023-03-17T22:52:35.967Z,37.67
2023-03-17T22:55:02.946Z,47.67
2023-03-17T22:57:30.017Z,51.33
2023-03-17T22:59:58.542Z,53.00
2023-03-17T23:02:26.474Z,55.33
2023-03-17T23:04:53.740Z,49.00
2023-03-17T23:07:21.186Z,44.00
2023-03-17T23:09:48.337Z,46.33
2023-03-17T23:12:15.355Z,43.67
2023-03-17T23:14:42.561Z,61.00
2023-03-17T23:17:09.746Z,52.00
2023-03-17T23:19:36.758Z,46.33
2023-03-17T23:22:03.746Z,46.67
2023-03-17T23:24:30.719Z,42.67
2023-03-17T23:26:57.713Z,28.33
2023-03-17T23:29:24.688Z,31.33
2023-03-17T23:31:51.601Z,33.00
2023-03-17T23:34:18.916Z,40.33
2023-03-17T23:36:46.368Z,38.67
2023-03-17T23:39:13.447Z,26.67
2023-03-17T23:41:40.474Z,18.33
2023-03-17T23:44:07.751Z,10.67
2023-03-17T23:46:34.874Z,24.67
2023-03-17T23:49:01.874Z,28.00
2023-03-17T23:51:29.398Z,23.00
2023-03-17T23:53:56.381Z,21.67
2023-03-17T23:56:23.474Z,16.00
2023-03-17T23:58:50.544Z,15.00
